createdAt,value
2016-11-18T00:00:25.429Z,35.35
2016-11-18T00:01:06.094Z,35.44
2016-11-18T00:01:46.804Z,35.44
2016-11-18T00:02:27.510Z,35.44
2016-11-18T00:03:08.206Z,35.25
2016-11-18T00:03:48.875Z,35.35
2016-11-18T00:04:29.565Z,35.25
2016-11-18T00:05:10.312Z,35.35
2016-11-18T00:05:50.978Z,35.35
2016-11-18T00:06:31.715Z,35.13
2016-11-18T00:07:12.394Z,35.35
2016-11-18T00:07:53.087Z,35.25
2016-11-18T00:08:33.828Z,35.15
2016-11-18T00:09:14.516Z,35.44
2016-11-18T00:09:55.194Z,35.44
2016-11-18T00:10:35.887Z,35.44
2016-11-18T00:11:16.562Z,35.44
2016-11-18T00:11:57.251Z,35.35
2016-11-18T00:12:37.929Z,35.25
2016-11-18T00:13:18.610Z,35.25
2016-11-18T00:13:59.308Z,35.05
2016-11-18T00:14:39.993Z,35.15
2016-11-18T00:15:20.694Z,34.96
2016-11-18T00:16:01.415Z,35.15
2016-11-18T00:16:42.080Z,35.35
2016-11-18T00:17:22.751Z,35.15
2016-11-18T00:18:03.447Z,35.15
2016-11-18T00:18:44.183Z,35.44
2016-11-18T00:19:24.838Z,35.25
2016-11-18T00:20:05.532Z,35.44
2016-11-18T00:20:46.234Z,35.05
2016-11-18T00:21:26.902Z,35.25
2016-11-18T00:22:07.638Z,35.05
2016-11-18T00:22:48.324Z,35.35
2016-11-18T00:23:28.983Z,35.35
2016-11-18T00:24:09.694Z,35.15
2016-11-18T00:24:50.393Z,35.25
2016-11-18T00:25:31.054Z,35.35
2016-11-18T00:26:11.708Z,35.35
2016-11-18T00:26:52.398Z,35.35
2016-11-18T00:27:33.064Z,35.35
2016-11-18T00:28:13.763Z,35.25
2016-11-18T00:28:54.444Z,35.15
2016-11-18T00:29:35.153Z,34.96
2016-11-18T00:30:15.855Z,35.44
2016-11-18T00:30:56.528Z,35.44
2016-11-18T00:31:37.203Z,35.35
2016-11-18T00:32:17.890Z,35.44
2016-11-18T00:32:58.725Z,35.35
2016-11-18T00:33:39.415Z,35.44
2016-11-18T00:34:20.123Z,35.33
2016-11-18T00:35:00.775Z,35.35
2016-11-18T00:35:41.481Z,35.44
2016-11-18T00:36:22.162Z,35.35
2016-11-18T00:37:02.889Z,35.25
2016-11-18T00:37:43.571Z,35.44
2016-11-18T00:38:24.227Z,35.15
2016-11-18T00:39:04.905Z,35.44
2016-11-18T00:39:45.554Z,35.35
2016-11-18T00:40:26.270Z,35.25
2016-11-18T00:41:06.974Z,35.15
2016-11-18T00:41:47.694Z,35.25
2016-11-18T00:42:28.354Z,35.35
2016-11-18T00:43:09.036Z,35.25
2016-11-18T00:43:49.760Z,35.25
2016-11-18T00:44:30.441Z,34.96
2016-11-18T00:45:11.189Z,35.05
2016-11-18T00:45:51.845Z,35.25
2016-11-18T00:46:32.471Z,35.05
2016-11-18T00:47:13.165Z,35.15
2016-11-18T00:47:53.852Z,35.05
2016-11-18T00:48:34.551Z,35.35
2016-11-18T00:49:15.249Z,35.35
2016-11-18T00:49:55.961Z,35.05
2016-11-18T00:50:36.676Z,35.44
2016-11-18T00:51:17.373Z,35.33
2016-11-18T00:51:58.057Z,35.35
2016-11-18T00:52:38.724Z,35.35
2016-11-18T00:53:19.437Z,35.05
2016-11-18T00:54:00.059Z,35.42
2016-11-18T00:54:40.716Z,35.15
2016-11-18T00:55:21.446Z,35.35
2016-11-18T00:56:02.152Z,35.35
2016-11-18T00:56:42.866Z,35.23
2016-11-18T00:57:24.445Z,35.05
2016-11-18T00:58:04.230Z,35.04
2016-11-18T00:58:44.891Z,35.15
2016-11-18T00:59:25.574Z,35.25
2016-11-18T01:00:06.246Z,35.04
2016-11-18T01:00:46.937Z,35.25
2016-11-18T01:01:27.626Z,35.05
2016-11-18T01:02:08.344Z,35.15
2016-11-18T01:02:49.022Z,34.96
2016-11-18T01:03:29.703Z,35.35
2016-11-18T01:04:10.402Z,35.23
2016-11-18T01:04:51.072Z,34.86
2016-11-18T01:05:31.737Z,35.05
2016-11-18T01:06:12.399Z,35.15
2016-11-18T01:06:53.104Z,35.15
2016-11-18T01:07:33.777Z,35.05
2016-11-18T01:08:14.453Z,35.23
2016-11-18T01:08:55.136Z,35.23
2016-11-18T01:09:35.798Z,35.33
2016-11-18T01:10:16.470Z,35.42
2016-11-18T01:10:57.177Z,35.25
2016-11-18T01:11:37.874Z,35.04
2016-11-18T01:12:18.606Z,35.25
2016-11-18T01:12:59.297Z,35.25
2016-11-18T01:13:39.973Z,35.25
2016-11-18T01:14:20.634Z,35.25
2016-11-18T01:15:01.309Z,35.15
2016-11-18T01:15:41.975Z,35.25
2016-11-18T01:16:22.641Z,34.96
2016-11-18T01:17:03.300Z,34.96
2016-11-18T01:17:44.010Z,34.94
2016-11-18T01:18:24.685Z,35.13
2016-11-18T01:19:05.376Z,35.33
2016-11-18T01:19:46.063Z,34.96
2016-11-18T01:20:26.743Z,35.05
2016-11-18T01:21:07.440Z,35.05
2016-11-18T01:21:48.134Z,35.25
2016-11-18T01:22:28.804Z,35.25
2016-11-18T01:23:09.504Z,34.96
2016-11-18T01:23:50.148Z,35.04
2016-11-18T01:24:30.802Z,35.15
2016-11-18T01:25:11.530Z,34.94
2016-11-18T01:25:52.186Z,34.96
2016-11-18T01:26:32.869Z,34.94
2016-11-18T01:27:13.595Z,34.96
2016-11-18T01:27:54.331Z,35.33
2016-11-18T01:28:35.036Z,35.13
2016-11-18T01:29:15.729Z,35.13
2016-11-18T01:29:56.395Z,34.84
2016-11-18T01:30:37.110Z,34.84
2016-11-18T01:31:17.809Z,35.04
2016-11-18T01:31:58.517Z,34.94
2016-11-18T01:32:39.225Z,35.15
2016-11-18T01:33:19.917Z,34.84
2016-11-18T01:34:00.617Z,34.84
2016-11-18T01:34:41.312Z,34.96
2016-11-18T01:35:22.048Z,35.13
2016-11-18T01:36:02.702Z,35.04
2016-11-18T01:36:43.382Z,34.94
2016-11-18T01:37:24.039Z,34.94
2016-11-18T01:38:04.762Z,34.94
2016-11-18T01:38:45.443Z,34.94
2016-11-18T01:39:26.130Z,35.23
2016-11-18T01:40:06.823Z,34.84
2016-11-18T01:40:47.515Z,34.96
2016-11-18T01:41:28.211Z,34.94
2016-11-18T01:42:08.913Z,35.04
2016-11-18T01:42:49.591Z,34.94
2016-11-18T01:43:30.313Z,35.04
2016-11-18T01:44:11.018Z,35.23
2016-11-18T01:44:51.696Z,34.84
2016-11-18T01:45:32.330Z,35.04
2016-11-18T01:46:13.035Z,35.23
2016-11-18T01:46:53.686Z,35.13
2016-11-18T01:47:34.385Z,34.94
2016-11-18T01:48:15.048Z,35.13
2016-11-18T01:48:55.752Z,35.05
2016-11-18T01:49:36.442Z,35.23
2016-11-18T01:50:17.129Z,34.96
2016-11-18T01:50:57.818Z,35.13
2016-11-18T01:51:38.476Z,34.94
2016-11-18T01:52:19.165Z,35.05
2016-11-18T01:52:59.837Z,34.94
2016-11-18T01:53:40.516Z,35.13
2016-11-18T01:54:21.169Z,35.15
2016-11-18T01:55:01.868Z,35.04
2016-11-18T01:55:42.573Z,35.05
2016-11-18T01:56:23.200Z,34.96
2016-11-18T01:57:03.886Z,34.84
2016-11-18T01:57:44.597Z,35.33
2016-11-18T01:58:25.296Z,35.23
2016-11-18T01:59:05.942Z,34.94
2016-11-18T01:59:46.598Z,34.84
2016-11-18T02:00:27.286Z,35.04
2016-11-18T02:01:07.965Z,34.86
2016-11-18T02:01:48.655Z,35.23
2016-11-18T02:02:29.317Z,34.94
2016-11-18T02:03:09.991Z,34.84
2016-11-18T02:03:50.680Z,35.04
2016-11-18T02:04:31.331Z,34.84
2016-11-18T02:05:12.013Z,34.94
2016-11-18T02:05:52.724Z,34.94
2016-11-18T02:06:33.373Z,34.94
2016-11-18T02:07:14.076Z,34.94
2016-11-18T02:07:54.738Z,34.84
2016-11-18T02:08:35.442Z,34.84
2016-11-18T02:09:16.112Z,34.84
2016-11-18T02:09:56.806Z,35.23
2016-11-18T02:10:37.520Z,34.86
2016-11-18T02:11:18.161Z,34.84
2016-11-18T02:11:58.820Z,34.96
2016-11-18T02:12:39.524Z,34.84
2016-11-18T02:13:20.182Z,34.84
2016-11-18T02:14:00.879Z,34.84
2016-11-18T02:14:41.551Z,35.04
2016-11-18T02:15:22.206Z,35.13
2016-11-18T02:16:02.896Z,34.84
2016-11-18T02:16:43.581Z,35.04
2016-11-18T02:17:24.293Z,34.94
2016-11-18T02:18:05.019Z,35.04
2016-11-18T02:18:45.732Z,34.84
2016-11-18T02:19:26.410Z,34.94
2016-11-18T02:20:07.099Z,34.94
2016-11-18T02:20:47.810Z,34.94
2016-11-18T02:21:28.497Z,34.94
2016-11-18T02:22:09.183Z,34.94
2016-11-18T02:22:49.859Z,35.13
2016-11-18T02:23:30.547Z,35.23
2016-11-18T02:24:11.226Z,35.04
2016-11-18T02:24:51.897Z,35.13
2016-11-18T02:25:32.527Z,34.94
2016-11-18T02:26:13.268Z,35.04
2016-11-18T02:26:53.915Z,35.04
2016-11-18T02:27:34.618Z,34.94
2016-11-18T02:28:15.311Z,35.13
2016-11-18T02:28:55.986Z,35.04
2016-11-18T02:29:36.695Z,34.84
2016-11-18T02:30:17.426Z,34.94
2016-11-18T02:30:58.156Z,35.04
2016-11-18T02:31:38.843Z,34.94
2016-11-18T02:32:19.487Z,34.94
2016-11-18T02:33:00.180Z,34.84
2016-11-18T02:33:40.839Z,34.94
2016-11-18T02:34:21.510Z,35.04
2016-11-18T02:35:02.228Z,34.65
2016-11-18T02:35:42.944Z,35.23
2016-11-18T02:36:23.649Z,34.84
2016-11-18T02:37:04.364Z,34.94
2016-11-18T02:37:45.058Z,35.04
2016-11-18T02:38:25.772Z,34.94
2016-11-18T02:39:06.430Z,35.04
2016-11-18T02:39:47.166Z,35.04
2016-11-18T02:40:27.849Z,34.84
2016-11-18T02:41:08.520Z,34.94
2016-11-18T02:41:49.198Z,35.13
2016-11-18T02:42:29.934Z,35.33
2016-11-18T02:43:10.620Z,34.94
2016-11-18T02:43:51.316Z,34.94
2016-11-18T02:44:32.017Z,35.04
2016-11-18T02:45:12.673Z,35.13
2016-11-18T02:45:53.357Z,35.04
2016-11-18T02:46:34.034Z,34.94
2016-11-18T02:47:14.715Z,35.13
2016-11-18T02:47:55.406Z,35.13
2016-11-18T02:48:36.152Z,34.84
2016-11-18T02:49:16.860Z,35.23
2016-11-18T02:49:57.513Z,34.65
2016-11-18T02:50:38.212Z,34.94
2016-11-18T02:51:18.883Z,35.04
2016-11-18T02:51:59.550Z,35.13
2016-11-18T02:52:40.229Z,34.94
2016-11-18T02:53:20.927Z,34.94
2016-11-18T02:54:01.594Z,34.94
2016-11-18T02:54:42.355Z,34.84
2016-11-18T02:55:23.000Z,34.84
2016-11-18T02:56:03.605Z,34.84
2016-11-18T02:56:44.383Z,35.04
2016-11-18T02:57:25.074Z,35.04
2016-11-18T02:58:05.745Z,34.94
2016-11-18T02:58:46.425Z,34.94
2016-11-18T02:59:27.069Z,34.94
2016-11-18T03:00:07.739Z,35.04
2016-11-18T03:00:48.407Z,35.04
2016-11-18T03:01:29.101Z,35.04
2016-11-18T03:02:09.758Z,35.04
2016-11-18T03:02:50.429Z,35.13
2016-11-18T03:03:31.132Z,34.84
2016-11-18T03:04:11.844Z,35.04
2016-11-18T03:04:52.507Z,35.23
2016-11-18T03:05:33.213Z,35.04
2016-11-18T03:06:13.859Z,34.84
2016-11-18T03:06:54.573Z,34.94
2016-11-18T03:07:35.262Z,34.84
2016-11-18T03:08:15.896Z,34.94
2016-11-18T03:08:56.577Z,35.23
2016-11-18T03:09:37.274Z,34.84
2016-11-18T03:10:17.950Z,35.04
2016-11-18T03:10:58.675Z,35.13
2016-11-18T03:11:39.370Z,34.65
2016-11-18T03:12:20.044Z,35.04
2016-11-18T03:13:00.743Z,35.13
2016-11-18T03:13:41.455Z,35.04
2016-11-18T03:14:22.202Z,34.94
2016-11-18T03:15:02.895Z,34.94
2016-11-18T03:15:43.562Z,34.94
2016-11-18T03:16:24.225Z,34.75
2016-11-18T03:17:04.894Z,34.94
2016-11-18T03:17:45.646Z,34.94
2016-11-18T03:18:26.301Z,35.04
2016-11-18T03:19:06.929Z,34.94
2016-11-18T03:19:47.612Z,34.75
2016-11-18T03:20:28.298Z,34.94
2016-11-18T03:21:08.977Z,35.04
2016-11-18T03:21:49.659Z,35.04
2016-11-18T03:22:30.342Z,34.84
2016-11-18T03:23:11.064Z,34.65
2016-11-18T03:23:51.723Z,35.04
2016-11-18T03:24:32.365Z,34.94
2016-11-18T03:25:13.121Z,35.04
2016-11-18T03:25:53.793Z,35.13
2016-11-18T03:26:34.505Z,35.04
2016-11-18T03:27:15.176Z,35.04
2016-11-18T03:27:55.927Z,34.75
2016-11-18T03:28:36.627Z,35.04
2016-11-18T03:29:17.355Z,34.94
2016-11-18T03:29:58.017Z,34.84
2016-11-18T03:30:38.680Z,34.94
2016-11-18T03:31:19.384Z,35.13
2016-11-18T03:32:00.099Z,34.94
2016-11-18T03:32:40.786Z,34.75
2016-11-18T03:33:21.473Z,34.94
2016-11-18T03:34:03.102Z,34.94
2016-11-18T03:34:43.798Z,34.84
2016-11-18T03:35:24.460Z,34.94
2016-11-18T03:36:05.146Z,34.94
2016-11-18T03:36:45.816Z,34.94
2016-11-18T03:37:26.531Z,34.94
2016-11-18T03:38:07.216Z,35.04
2016-11-18T03:38:47.903Z,35.04
2016-11-18T03:39:28.543Z,34.94
2016-11-18T03:40:09.238Z,34.94
2016-11-18T03:40:49.930Z,34.94
2016-11-18T03:41:30.609Z,34.84
2016-11-18T03:42:11.324Z,35.04
2016-11-18T03:42:51.996Z,34.84
2016-11-18T03:43:32.667Z,34.65
2016-11-18T03:44:13.326Z,34.94
2016-11-18T03:44:54.021Z,34.84
2016-11-18T03:45:34.685Z,34.94
2016-11-18T03:46:15.437Z,34.94
2016-11-18T03:46:56.105Z,35.04
2016-11-18T03:47:36.787Z,34.65
2016-11-18T03:48:17.468Z,34.84
2016-11-18T03:48:58.153Z,35.04
2016-11-18T03:49:38.843Z,34.84
2016-11-18T03:50:19.545Z,34.75
2016-11-18T03:51:00.262Z,35.04
2016-11-18T03:51:40.921Z,34.94
2016-11-18T03:52:21.626Z,35.04
2016-11-18T03:53:02.356Z,34.65
2016-11-18T03:53:43.032Z,35.04
2016-11-18T03:54:23.666Z,35.04
2016-11-18T03:55:04.390Z,35.04
2016-11-18T03:55:45.030Z,34.84
2016-11-18T03:56:25.731Z,34.84
2016-11-18T03:57:06.416Z,34.94
2016-11-18T03:57:47.051Z,35.04
2016-11-18T03:58:27.765Z,34.84
2016-11-18T03:59:08.424Z,34.94
2016-11-18T03:59:49.068Z,34.94
2016-11-18T04:00:29.720Z,35.04
2016-11-18T04:01:10.392Z,35.04
2016-11-18T04:01:51.070Z,34.65
2016-11-18T04:02:31.709Z,35.04
2016-11-18T04:03:12.372Z,34.84
2016-11-18T04:03:53.081Z,34.94
2016-11-18T04:04:33.787Z,34.94
2016-11-18T04:05:14.450Z,34.94
2016-11-18T04:05:55.126Z,35.04
2016-11-18T04:06:35.850Z,35.04
2016-11-18T04:07:16.542Z,35.04
2016-11-18T04:07:57.237Z,34.84
2016-11-18T04:08:37.908Z,34.84
2016-11-18T04:09:18.558Z,34.94
2016-11-18T04:09:59.308Z,34.94
2016-11-18T04:10:39.983Z,34.55
2016-11-18T04:11:20.661Z,34.55
2016-11-18T04:12:01.318Z,34.84
2016-11-18T04:12:42.022Z,34.75
2016-11-18T04:13:22.767Z,34.94
2016-11-18T04:14:03.441Z,34.94
2016-11-18T04:14:44.178Z,34.84
2016-11-18T04:15:24.884Z,34.84
2016-11-18T04:16:05.626Z,34.75
2016-11-18T04:16:46.297Z,35.04
2016-11-18T04:17:26.963Z,34.75
2016-11-18T04:18:07.665Z,34.75
2016-11-18T04:18:48.335Z,35.04
2016-11-18T04:19:28.992Z,34.94
2016-11-18T04:20:09.682Z,34.94
2016-11-18T04:20:50.363Z,34.73
2016-11-18T04:21:31.022Z,35.04
2016-11-18T04:22:11.777Z,35.04
2016-11-18T04:22:52.450Z,34.84
2016-11-18T04:23:33.136Z,34.94
2016-11-18T04:24:13.813Z,34.75
2016-11-18T04:24:54.552Z,34.55
2016-11-18T04:25:35.264Z,34.54
2016-11-18T04:26:15.972Z,35.02
2016-11-18T04:26:56.632Z,34.55
2016-11-18T04:27:37.281Z,34.94
2016-11-18T04:28:17.966Z,35.02
2016-11-18T04:28:58.658Z,34.75
2016-11-18T04:29:39.338Z,34.84
2016-11-18T04:30:19.998Z,34.65
2016-11-18T04:31:00.664Z,34.92
2016-11-18T04:31:41.332Z,34.75
2016-11-18T04:32:22.022Z,34.65
2016-11-18T04:33:02.729Z,34.54
2016-11-18T04:33:43.396Z,34.54
2016-11-18T04:34:24.115Z,34.73
2016-11-18T04:35:04.811Z,34.75
2016-11-18T04:35:45.489Z,34.55
2016-11-18T04:36:26.168Z,34.65
2016-11-18T04:37:06.860Z,34.55
2016-11-18T04:37:47.543Z,34.55
2016-11-18T04:38:28.268Z,34.44
2016-11-18T04:39:08.993Z,34.45
2016-11-18T04:39:49.653Z,34.65
2016-11-18T04:40:30.356Z,34.63
2016-11-18T04:41:11.097Z,34.54
2016-11-18T04:41:51.801Z,34.65
2016-11-18T04:44:07.060Z,34.65
2016-11-18T04:44:47.772Z,34.65
2016-11-18T04:45:28.443Z,34.55
2016-11-18T04:46:09.131Z,34.55
2016-11-18T04:46:49.807Z,34.55
2016-11-18T04:47:30.502Z,34.55
2016-11-18T04:48:11.208Z,34.63
2016-11-18T04:48:51.885Z,34.44
2016-11-18T04:49:32.566Z,34.65
2016-11-18T04:50:13.264Z,34.54
2016-11-18T04:50:53.982Z,34.63
2016-11-18T04:51:34.688Z,34.63
2016-11-18T04:52:15.330Z,34.54
2016-11-18T04:52:56.052Z,34.45
2016-11-18T04:53:36.764Z,34.63
2016-11-18T04:54:17.472Z,34.63
2016-11-18T04:54:58.147Z,34.65
2016-11-18T04:55:38.872Z,34.65
2016-11-18T04:56:19.575Z,34.73
2016-11-18T04:57:00.224Z,34.65
2016-11-18T04:57:40.912Z,34.63
2016-11-18T04:58:21.549Z,34.65
2016-11-18T04:59:02.222Z,34.65
2016-11-18T04:59:42.939Z,34.65
2016-11-18T05:00:23.617Z,34.65
2016-11-18T05:01:04.293Z,34.54
2016-11-18T05:01:44.976Z,34.65
2016-11-18T05:02:25.654Z,34.54
2016-11-18T05:03:06.332Z,34.45
2016-11-18T05:03:47.031Z,34.65
2016-11-18T05:04:27.680Z,34.65
2016-11-18T05:05:08.381Z,34.73
2016-11-18T05:05:49.043Z,34.44
2016-11-18T05:06:29.750Z,34.65
2016-11-18T05:07:10.403Z,34.45
2016-11-18T05:07:51.067Z,34.65
2016-11-18T05:08:31.717Z,34.44
2016-11-18T05:09:12.423Z,34.55
2016-11-18T05:09:53.100Z,34.54
2016-11-18T05:10:33.773Z,34.84
2016-11-18T05:11:14.453Z,34.65
2016-11-18T05:11:55.119Z,34.75
2016-11-18T05:12:35.806Z,34.55
2016-11-18T05:13:16.491Z,34.55
2016-11-18T05:13:57.149Z,34.65
2016-11-18T05:14:37.820Z,34.65
2016-11-18T05:15:18.518Z,34.65
2016-11-18T05:15:59.175Z,34.65
2016-11-18T05:16:39.879Z,34.94
2016-11-18T05:17:20.552Z,35.13
2016-11-18T05:18:01.186Z,34.55
2016-11-18T05:18:41.825Z,34.73
2016-11-18T05:19:22.477Z,34.65
2016-11-18T05:20:03.208Z,34.55
2016-11-18T05:20:43.888Z,34.65
2016-11-18T05:21:24.590Z,34.65
2016-11-18T05:22:05.246Z,34.63
2016-11-18T05:22:45.961Z,34.75
2016-11-18T05:23:26.665Z,34.75
2016-11-18T05:24:07.315Z,34.65
2016-11-18T05:24:48.025Z,34.54
2016-11-18T05:25:28.684Z,34.92
2016-11-18T05:26:09.337Z,34.44
2016-11-18T05:26:49.962Z,34.65
2016-11-18T05:27:30.683Z,34.44
2016-11-18T05:28:11.413Z,34.55
2016-11-18T05:28:52.121Z,34.65
2016-11-18T05:29:32.808Z,34.55
2016-11-18T05:30:13.534Z,34.54
2016-11-18T05:30:54.220Z,34.73
2016-11-18T05:31:34.939Z,34.65
2016-11-18T05:32:15.622Z,35.12
2016-11-18T05:32:56.291Z,34.92
2016-11-18T05:33:36.949Z,34.63
2016-11-18T05:34:17.624Z,35.04
2016-11-18T05:34:58.265Z,34.65
2016-11-18T05:35:38.943Z,34.75
2016-11-18T05:36:19.624Z,34.65
2016-11-18T05:37:00.262Z,35.04
2016-11-18T05:37:40.957Z,35.02
2016-11-18T05:38:21.611Z,34.65
2016-11-18T05:39:02.279Z,34.73
2016-11-18T05:39:42.929Z,34.63
2016-11-18T05:40:23.616Z,34.63
2016-11-18T05:41:04.263Z,34.63
2016-11-18T05:41:44.924Z,35.13
2016-11-18T05:42:25.580Z,34.92
2016-11-18T05:43:06.310Z,34.65
2016-11-18T05:43:46.999Z,34.63
2016-11-18T05:44:27.721Z,34.65
2016-11-18T05:45:08.386Z,34.75
2016-11-18T05:45:49.036Z,35.13
2016-11-18T05:46:29.684Z,34.65
2016-11-18T05:47:10.379Z,34.65
2016-11-18T05:47:51.054Z,34.34
2016-11-18T05:48:31.696Z,34.73
2016-11-18T05:49:12.400Z,34.45
2016-11-18T05:49:53.071Z,34.63
2016-11-18T05:50:33.742Z,34.63
2016-11-18T05:51:14.388Z,34.65
2016-11-18T05:51:55.093Z,34.63
2016-11-18T05:52:35.801Z,34.63
2016-11-18T05:53:16.420Z,34.73
2016-11-18T05:53:57.118Z,34.65
2016-11-18T05:54:37.831Z,34.63
2016-11-18T05:55:18.522Z,34.65
2016-11-18T05:55:59.161Z,34.65
2016-11-18T05:56:40.756Z,34.63
2016-11-18T05:57:21.397Z,34.55
2016-11-18T05:58:02.105Z,34.84
2016-11-18T05:58:42.794Z,34.34
2016-11-18T06:02:03.514Z,34.84
2016-11-18T06:02:44.165Z,34.73
2016-11-18T06:03:24.859Z,35.02
2016-11-18T06:04:05.507Z,34.92
2016-11-18T06:04:46.263Z,34.36
2016-11-18T06:06:34.383Z,34.25
2016-11-18T06:07:15.272Z,34.34
2016-11-18T06:07:56.059Z,34.44
2016-11-18T06:08:36.813Z,34.44
2016-11-18T06:09:17.563Z,34.55
2016-11-18T06:09:58.335Z,34.44
2016-11-18T06:10:39.117Z,34.44
2016-11-18T06:11:19.880Z,34.44
2016-11-18T06:12:00.657Z,34.25
2016-11-18T06:12:41.422Z,34.34
2016-11-18T06:13:22.185Z,34.83
2016-11-18T06:14:02.971Z,35.04
2016-11-18T06:14:43.736Z,35.12
2016-11-18T06:15:24.472Z,34.73
2016-11-18T06:16:05.182Z,34.44
2016-11-18T06:16:45.856Z,34.34
2016-11-18T06:17:26.554Z,34.83
2016-11-18T06:18:07.188Z,34.63
2016-11-18T06:18:47.876Z,34.92
2016-11-18T06:19:28.570Z,34.25
2016-11-18T06:20:09.235Z,34.25
2016-11-18T06:20:49.900Z,34.54
2016-11-18T06:21:30.548Z,34.45
2016-11-18T06:22:11.187Z,34.44
2016-11-18T06:22:51.851Z,34.63
2016-11-18T06:23:32.537Z,34.65
2016-11-18T06:24:13.196Z,34.34
2016-11-18T06:24:53.888Z,34.73
2016-11-18T06:25:34.571Z,34.73
2016-11-18T06:26:15.259Z,34.44
2016-11-18T06:26:55.925Z,34.73
2016-11-18T06:27:36.623Z,35.12
2016-11-18T06:28:17.296Z,34.63
2016-11-18T06:28:57.972Z,34.63
2016-11-18T06:29:38.618Z,35.13
2016-11-18T06:30:19.298Z,35.12
2016-11-18T06:30:59.954Z,34.65
2016-11-18T06:31:40.632Z,34.25
2016-11-18T06:32:21.344Z,34.92
2016-11-18T06:33:02.014Z,34.92
2016-11-18T06:33:42.774Z,34.45
2016-11-18T06:34:23.464Z,34.44
2016-11-18T06:35:04.135Z,34.63
2016-11-18T06:35:44.806Z,35.12
2016-11-18T06:36:25.456Z,34.73
2016-11-18T06:37:06.126Z,34.44
2016-11-18T06:37:46.757Z,35.12
2016-11-18T06:38:27.427Z,35.12
2016-11-18T06:39:08.106Z,35.12
2016-11-18T06:39:48.779Z,34.34
2016-11-18T06:40:29.476Z,34.94
2016-11-18T06:41:10.141Z,34.54
2016-11-18T06:41:50.815Z,34.94
2016-11-18T06:42:31.500Z,34.34
2016-11-18T06:43:12.207Z,34.63
2016-11-18T06:43:52.863Z,34.63
2016-11-18T06:44:33.546Z,35.04
2016-11-18T06:45:14.269Z,34.34
2016-11-18T06:45:54.947Z,35.02
2016-11-18T06:46:35.627Z,34.63
2016-11-18T06:47:16.367Z,34.73
2016-11-18T06:47:57.070Z,34.34
2016-11-18T06:48:37.765Z,34.25
2016-11-18T06:49:18.444Z,34.75
2016-11-18T06:49:59.124Z,34.63
2016-11-18T06:50:39.776Z,34.63
2016-11-18T06:51:20.465Z,34.63
2016-11-18T06:52:01.135Z,34.54
2016-11-18T06:52:41.830Z,34.73
2016-11-18T06:53:22.571Z,34.34
2016-11-18T06:54:03.249Z,34.27
2016-11-18T06:54:43.943Z,34.94
2016-11-18T06:55:24.604Z,34.73
2016-11-18T06:56:05.295Z,34.63
2016-11-18T06:56:45.983Z,34.83
2016-11-18T06:57:26.623Z,35.02
2016-11-18T06:58:07.348Z,34.84
2016-11-18T06:58:48.016Z,35.04
2016-11-18T06:59:28.689Z,34.63
2016-11-18T07:00:09.365Z,34.65
2016-11-18T07:00:50.027Z,34.63
2016-11-18T07:01:30.703Z,34.54
2016-11-18T07:02:11.405Z,34.73
2016-11-18T07:02:52.114Z,34.63
2016-11-18T07:03:32.810Z,34.63
2016-11-18T07:04:13.472Z,34.73
2016-11-18T07:04:54.122Z,34.83
2016-11-18T07:05:34.762Z,35.02
2016-11-18T07:06:15.439Z,34.55
2016-11-18T07:06:56.128Z,34.75
2016-11-18T07:07:36.734Z,34.55
2016-11-18T07:08:17.394Z,34.75
2016-11-18T07:08:58.092Z,34.92
2016-11-18T07:09:38.801Z,35.02
2016-11-18T07:10:19.518Z,35.04
2016-11-18T07:11:00.257Z,34.84
2016-11-18T07:11:40.914Z,34.94
2016-11-18T07:12:21.596Z,35.04
2016-11-18T07:13:02.320Z,34.92
2016-11-18T07:13:43.017Z,34.73
2016-11-18T07:14:23.677Z,35.04
2016-11-18T07:15:04.322Z,34.94
2016-11-18T07:15:45.035Z,34.84
2016-11-18T07:16:25.749Z,34.75
2016-11-18T07:17:06.451Z,34.44
2016-11-18T07:17:47.132Z,34.17
2016-11-18T07:18:27.831Z,34.07
2016-11-18T07:19:08.535Z,33.78
2016-11-18T07:19:49.217Z,33.59
2016-11-18T07:20:29.860Z,33.59
2016-11-18T07:21:10.555Z,33.87
2016-11-18T07:21:51.219Z,33.59
2016-11-18T07:22:31.918Z,33.59
2016-11-18T07:23:12.619Z,33.39
2016-11-18T07:23:53.343Z,33.59
2016-11-18T07:24:34.020Z,33.59
2016-11-18T07:25:14.705Z,33.39
2016-11-18T07:25:55.383Z,33.59
2016-11-18T07:26:36.036Z,33.51
2016-11-18T07:27:16.760Z,33.49
2016-11-18T07:27:57.401Z,33.39
2016-11-18T07:28:38.064Z,33.2
2016-11-18T07:29:18.715Z,33.29
2016-11-18T07:29:59.414Z,33.59
2016-11-18T07:30:40.123Z,33.6
2016-11-18T07:31:20.808Z,33.6
2016-11-18T07:32:01.499Z,33.7
2016-11-18T07:32:42.175Z,33.41
2016-11-18T07:33:22.843Z,33.51
2016-11-18T07:34:03.519Z,33.41
2016-11-18T07:34:44.247Z,33.51
2016-11-18T07:35:24.957Z,33.51
2016-11-18T07:36:05.608Z,33.6
2016-11-18T07:36:46.311Z,33.12
2016-11-18T07:37:27.028Z,33.22
2016-11-18T07:38:07.710Z,33.22
2016-11-18T07:38:48.445Z,33.6
2016-11-18T07:39:29.114Z,33.41
2016-11-18T07:40:09.791Z,33.41
2016-11-18T07:40:50.500Z,33.31
2016-11-18T07:41:31.194Z,33.22
2016-11-18T07:42:11.870Z,33.22
2016-11-18T07:42:52.519Z,33.31
2016-11-18T07:43:33.292Z,33.22
2016-11-18T07:44:13.979Z,33.02
2016-11-18T07:44:54.640Z,33.12
2016-11-18T07:45:35.361Z,33.41
2016-11-18T07:46:16.118Z,33.31
2016-11-18T07:46:56.846Z,33.22
2016-11-18T07:47:37.537Z,33.6
2016-11-18T07:48:18.292Z,33.31
2016-11-18T07:48:59.041Z,33.12
2016-11-18T07:49:39.746Z,33.22
2016-11-18T07:50:20.399Z,33.12
2016-11-18T07:51:01.964Z,33.22
2016-11-18T07:51:42.703Z,33.02
2016-11-18T07:52:23.378Z,32.64
2016-11-18T07:53:04.075Z,32.92
2016-11-18T07:53:44.794Z,32.54
2016-11-18T07:54:25.558Z,32.82
2016-11-18T07:55:06.275Z,32.24
2016-11-18T07:55:46.987Z,32.73
2016-11-18T07:56:27.786Z,33.31
2016-11-18T07:57:08.401Z,32.64
2016-11-18T07:57:49.113Z,33.31
2016-11-18T07:58:29.909Z,33.41
2016-11-18T07:59:10.649Z,33.31
2016-11-18T07:59:51.301Z,33.6
2016-11-18T08:00:31.980Z,33.31
2016-11-18T08:01:12.680Z,33.31
2016-11-18T08:01:53.378Z,33.51
2016-11-18T08:02:34.093Z,33.22
2016-11-18T08:03:14.810Z,33.51
2016-11-18T08:03:55.507Z,33.22
2016-11-18T08:04:36.220Z,33.6
2016-11-18T08:05:16.922Z,33.51
2016-11-18T08:05:57.578Z,33.31
2016-11-18T08:06:38.304Z,33.6
2016-11-18T08:07:19.031Z,33.51
2016-11-18T08:07:59.816Z,33.12
2016-11-18T08:08:40.494Z,33.31
2016-11-18T08:09:21.121Z,33.42
2016-11-18T08:10:01.897Z,33.41
2016-11-18T08:10:42.534Z,33.31
2016-11-18T08:11:23.233Z,33.6
2016-11-18T08:12:03.946Z,33.33
2016-11-18T08:12:44.655Z,33.51
2016-11-18T08:13:25.324Z,33.62
2016-11-18T08:14:05.971Z,33.52
2016-11-18T08:14:46.728Z,33.33
2016-11-18T08:15:27.350Z,33.31
2016-11-18T08:16:08.008Z,33.41
2016-11-18T08:16:48.667Z,33.42
2016-11-18T08:17:29.374Z,33.42
2016-11-18T08:18:10.054Z,33.31
2016-11-18T08:18:50.712Z,33.62
2016-11-18T08:19:31.367Z,33.62
2016-11-18T08:20:12.749Z,33.41
2016-11-18T08:20:53.517Z,33.52
2016-11-18T08:21:34.175Z,33.42
2016-11-18T08:22:14.874Z,33.42
2016-11-18T08:22:55.559Z,33.62
2016-11-18T08:23:36.311Z,33.62
2016-11-18T08:24:17.947Z,33.52
2016-11-18T08:24:58.631Z,33.52
2016-11-18T08:25:39.268Z,33.62
2016-11-18T08:26:19.952Z,33.33
2016-11-18T08:27:00.765Z,33.33
2016-11-18T08:27:41.499Z,33.42
2016-11-18T08:28:22.224Z,33.42
2016-11-18T08:29:03.514Z,33.52
2016-11-18T08:29:44.329Z,33.33
2016-11-18T08:30:24.989Z,33.52
2016-11-18T08:31:05.693Z,33.52
2016-11-18T08:31:46.352Z,33.42
2016-11-18T08:32:27.068Z,33.62
2016-11-18T08:33:07.738Z,33.42
2016-11-18T08:33:48.367Z,33.42
2016-11-18T08:34:29.459Z,33.52
2016-11-18T08:35:09.796Z,33.52
2016-11-18T08:35:50.492Z,33.33
2016-11-18T08:36:31.187Z,33.72
2016-11-18T08:37:11.836Z,33.72
2016-11-18T08:37:52.511Z,33.42
2016-11-18T08:38:33.235Z,33.23
2016-11-18T08:39:13.941Z,33.33
2016-11-18T08:39:54.624Z,33.33
2016-11-18T08:40:35.367Z,33.23
2016-11-18T08:41:16.149Z,33.42
2016-11-18T08:41:56.837Z,33.52
2016-11-18T08:42:37.566Z,33.42
2016-11-18T08:43:18.289Z,33.42
2016-11-18T08:43:58.961Z,33.52
2016-11-18T08:44:39.683Z,33.52
2016-11-18T08:45:20.399Z,33.72
2016-11-18T08:46:01.080Z,33.52
2016-11-18T08:46:41.800Z,33.72
2016-11-18T08:47:22.492Z,33.62
2016-11-18T08:48:03.180Z,33.62
2016-11-18T08:48:43.902Z,33.52
2016-11-18T08:49:24.587Z,33.72
2016-11-18T08:50:05.319Z,33.52